Time;durP1;ratioP1;P1;durP2;ratioP2;P2;SDS_P1;SDS_P2;PMS_P1;PMS_P2;Temp;Humidity;BMP_temperature;BMP_pressure;BME280_temperature;BME280_humidity;BME280_pressure;Samples;Min_cycle;Max_cycle;Signal;HPM_P1;HPM_P2
2021/12/10 00:02:09;;;;;;;;;;;;;;;;;;5095018;28;19961;-76
2021/12/10 00:04:35;;;;;;;;;;;;;;;;;;5095098;28;19908;-75
2021/12/10 00:07:01;;;;;;;;;;;;;;;;;;5094136;28;19908;-75
2021/12/10 00:09:27;;;;;;;;;;;;;;;;;;5094578;28;20003;-70
2021/12/10 00:11:53;;;;;;;;;;;;;;;;;;5094959;28;19908;-75
2021/12/10 00:14:19;;;;;;;;;;;;;;;;;;5095004;28;19908;-73
2021/12/10 00:16:45;;;;;;;;;;;;;;;;;;5094755;28;19908;-71
2021/12/10 00:21:37;;;;;;;;;;;;;;;;;;5094783;28;19908;-74
2021/12/10 00:24:03;;;;;;;;;;;;;;;;;;5094703;28;19908;-73
2021/12/10 00:26:29;;;;;;;;;;;;;;;;;;5094541;28;19915;-74
2021/12/10 00:29:02;;;;;;;;;;;;;;;;;;5094433;28;19908;-73
2021/12/10 00:31:42;;;;;;;;;;;;;;;;;;5094564;28;20492;-73
2021/12/10 00:34:08;;;;;;;;;;;;;;;;;;5094494;28;19908;-71
2021/12/10 00:36:36;;;;;;;;;;;;;;;;;;5094181;28;19976;-70
2021/12/10 00:39:03;;;;;;;;;;;;;;;;;;5094481;28;19956;-73
2021/12/10 00:41:29;;;;;;;;;;;;;;;;;;5093112;28;19908;-69
2021/12/10 00:43:55;;;;;;;;;;;;;;;;;;5077266;28;19912;-76
2021/12/10 00:46:21;;;;;;;;;;;;;;;;;;5073821;28;19930;-72
2021/12/10 00:48:46;;;;;;;;;;;;;;;;;;5074399;28;19979;-76
2021/12/10 00:51:12;;;;;;;;;;;;;;;;;;5074117;28;19915;-74
2021/12/10 00:53:38;;;;;;;;;;;;;;;;;;5072684;28;19908;-74
2021/12/10 00:56:04;;;;;;;;;;;;;;;;;;5072459;28;19969;-74
2021/12/10 00:58:30;;;;;;;;;;;;;;;;;;5073643;28;19916;-72
2021/12/10 01:00:56;;;;;;;;;;;;;;;;;;5073662;28;20283;-75
2021/12/10 01:03:22;;;;;;;;;;;;;;;;;;5073471;28;19916;-74
2021/12/10 01:05:48;;;;;;;;;;;;;;;;;;5073571;28;19919;-70
2021/12/10 01:08:14;;;;;;;;;;;;;;;;;;5073539;28;19909;-71
2021/12/10 01:10:40;;;;;;;;;;;;;;;;;;5073606;28;19916;-75
2021/12/10 01:13:07;;;;;;;;;;;;;;;;;;5073704;28;20298;-74
2021/12/10 01:28:44;;;;;;;;;;;;;;;;;;5073285;28;19916;-76
2021/12/10 01:31:10;;;;;;;;;;;;;;;;;;5072998;28;19909;-75
2021/12/10 01:33:36;;;;;;;;;;;;;;;;;;5073029;28;19909;-73
2021/12/10 01:36:07;;;;;;;;;;;;;;;;;;5071552;28;20292;-75
2021/12/10 01:38:33;;;;;;;;;;;;;;;;;;5072548;28;19973;-75
2021/12/10 01:41:00;;;;;;;;;;;;;;;;;;5072891;28;19978;-75
2021/12/10 01:43:28;;;;;;;;;;;;;;;;;;5072893;28;19908;-67
2021/12/10 01:45:54;;;;;;;;;;;;;;;;;;5072793;28;20008;-73
2021/12/10 01:48:20;;;;;;;;;;;;;;;;;;5072750;28;19966;-71
2021/12/10 01:50:46;;;;;;;;;;;;;;;;;;5072671;28;19912;-69
2021/12/10 01:53:12;;;;;;;;;;;;;;;;;;5072588;28;19962;-76
2021/12/10 01:55:38;;;;;;;;;;;;;;;;;;5072563;28;19956;-71
2021/12/10 01:58:04;;;;;;;;;;;;;;;;;;5072614;28;19919;-74
2021/12/10 02:00:30;;;;;;;;;;;;;;;;;;5072678;28;19908;-72
2021/12/10 02:02:56;;;;;;;;;;;;;;;;;;5072647;28;19961;-69
2021/12/10 02:05:22;;;;;;;;;;;;;;;;;;5072486;28;19942;-76
2021/12/10 02:07:48;;;;;;;;;;;;;;;;;;5073972;28;19904;-72
2021/12/10 02:10:14;;;;;;;;;;;;;;;;;;5092625;28;20455;-74
2021/12/10 02:12:40;;;;;;;;;;;;;;;;;;5092585;28;20007;-71
2021/12/10 02:15:06;;;;;;;;;;;;;;;;;;5092666;28;19962;-71
2021/12/10 02:17:31;;;;;;;;;;;;;;;;;;5091252;28;19974;-73
2021/12/10 02:19:57;;;;;;;;;;;;;;;;;;5092807;28;19915;-74
2021/12/10 02:22:24;;;;;;;;;;;;;;;;;;5092635;28;20276;-75
2021/12/10 02:24:50;;;;;;;;;;;;;;;;;;5092540;28;20371;-69
2021/12/10 02:27:16;;;;;;;;;;;;;;;;;;5092673;28;19942;-76
2021/12/10 02:29:42;;;;;;;;;;;;;;;;;;5091031;28;19916;-73
2021/12/10 02:32:09;;;;;;;;;;;;;;;;;;5092463;28;20003;-77
2021/12/10 02:34:35;;;;;;;;;;;;;;;;;;5092508;28;19955;-74
2021/12/10 02:37:01;;;;;;;;;;;;;;;;;;5092311;28;19946;-72
2021/12/10 02:39:29;;;;;;;;;;;;;;;;;;5091523;28;21662;-70
2021/12/10 02:41:55;;;;;;;;;;;;;;;;;;5092527;28;19914;-74
2021/12/10 02:44:21;;;;;;;;;;;;;;;;;;5073457;28;20351;-75
2021/12/10 02:46:47;;;;;;;;;;;;;;;;;;5071756;28;20465;-77
2021/12/10 02:49:12;;;;;;;;;;;;;;;;;;5071779;28;19909;-72
2021/12/10 02:51:38;;;;;;;;;;;;;;;;;;5071978;28;19962;-73
2021/12/10 02:54:05;;;;;;;;;;;;;;;;;;5072062;28;19954;-70
2021/12/10 02:56:31;;;;;;;;;;;;;;;;;;5071956;28;19916;-77
2021/12/10 02:58:58;;;;;;;;;;;;;;;;;;5071841;28;19917;-76
2021/12/10 03:01:24;;;;;;;;;;;;;;;;;;5071979;28;20325;-69
2021/12/10 03:03:50;;;;;;;;;;;;;;;;;;5070570;28;19905;-74
2021/12/10 03:06:16;;;;;;;;;;;;;;;;;;5071685;28;19908;-78
2021/12/10 03:08:42;;;;;;;;;;;;;;;;;;5072117;28;20505;-66
2021/12/10 03:11:08;;;;;;;;;;;;;;;;;;5071928;28;20266;-73
2021/12/10 03:13:34;;;;;;;;;;;;;;;;;;5071897;28;19999;-74
2021/12/10 03:16:00;;;;;;;;;;;;;;;;;;5071850;28;20105;-76
2021/12/10 03:18:26;;;;;;;;;;;;;;;;;;5071569;28;19972;-76
2021/12/10 03:20:51;;;;;;;;;;;;;;;;;;5071652;28;19912;-74
2021/12/10 03:23:17;;;;;;;;;;;;;;;;;;5070347;28;19943;-74
2021/12/10 03:25:43;;;;;;;;;;;;;;;;;;5071295;28;20352;-75
2021/12/10 03:28:09;;;;;;;;;;;;;;;;;;5071768;28;19998;-72
2021/12/10 03:30:35;;;;;;;;;;;;;;;;;;5070481;28;19909;-73
2021/12/10 03:33:01;;;;;;;;;;;;;;;;;;5071526;28;19908;-72
2021/12/10 03:35:28;;;;;;;;;;;;;;;;;;5071514;28;20003;-68
2021/12/10 03:37:54;;;;;;;;;;;;;;;;;;5071443;28;19921;-73
2021/12/10 03:40:20;;;;;;;;;;;;;;;;;;5071693;28;19935;-73
2021/12/10 03:42:47;;;;;;;;;;;;;;;;;;5073940;28;19958;-72
2021/12/10 03:45:13;;;;;;;;;;;;;;;;;;5075227;28;19999;-74
2021/12/10 03:47:39;;;;;;;;;;;;;;;;;;5074862;28;20386;-74
2021/12/10 03:50:04;;;;;;;;;;;;;;;;;;5074868;28;19958;-73
2021/12/10 03:52:30;;;;;;;;;;;;;;;;;;5074500;28;19955;-72
2021/12/10 03:54:59;;;;;;;;;;;;;;;;;;5074779;28;19958;-73
2021/12/10 03:57:25;;;;;;;;;;;;;;;;;;5074720;28;20386;-73
2021/12/10 03:59:51;;;;;;;;;;;;;;;;;;5074860;28;19909;-73
2021/12/10 04:02:16;;;;;;;;;;;;;;;;;;5075999;28;19916;-74
2021/12/10 04:04:42;;;;;;;;;;;;;;;;;;5083318;28;19908;-74
2021/12/10 04:07:08;;;;;;;;;;;;;;;;;;5079856;28;19908;-73
2021/12/10 04:09:34;;;;;;;;;;;;;;;;;;5074684;28;20275;-72
2021/12/10 04:12:00;;;;;;;;;;;;;;;;;;5074784;28;20419;-68
2021/12/10 04:14:26;;;;;;;;;;;;;;;;;;5074986;28;19959;-68
2021/12/10 04:16:56;;;;;;;;;;;;;;;;;;5074540;28;20367;-73
2021/12/10 04:19:22;;;;;;;;;;;;;;;;;;5074379;28;19923;-73
2021/12/10 04:21:48;;;;;;;;;;;;;;;;;;5073130;28;20003;-72
2021/12/10 04:24:14;;;;;;;;;;;;;;;;;;5074523;28;19967;-74
2021/12/10 04:26:40;;;;;;;;;;;;;;;;;;5074341;28;20391;-74
2021/12/10 04:29:06;;;;;;;;;;;;;;;;;;5074341;28;19946;-72
2021/12/10 04:31:32;;;;;;;;;;;;;;;;;;5074291;28;19955;-75
2021/12/10 04:33:58;;;;;;;;;;;;;;;;;;5074423;28;19909;-73
2021/12/10 04:36:24;;;;;;;;;;;;;;;;;;5073838;28;19931;-77
2021/12/10 04:38:50;;;;;;;;;;;;;;;;;;5074389;28;20386;-76
2021/12/10 04:41:16;;;;;;;;;;;;;;;;;;5074105;28;19932;-76
2021/12/10 04:43:42;;;;;;;;;;;;;;;;;;5081898;28;20379;-76
2021/12/10 04:46:08;;;;;;;;;;;;;;;;;;5094160;28;20003;-76
2021/12/10 04:48:34;;;;;;;;;;;;;;;;;;5094358;28;20367;-77
2021/12/10 04:50:59;;;;;;;;;;;;;;;;;;5094275;28;19969;-79
2021/12/10 04:53:25;;;;;;;;;;;;;;;;;;5094271;28;19908;-73
2021/12/10 04:55:51;;;;;;;;;;;;;;;;;;5094195;28;19915;-73
2021/12/10 04:58:17;;;;;;;;;;;;;;;;;;5092782;28;19969;-76
2021/12/10 05:00:43;;;;;;;;;;;;;;;;;;5094090;28;20317;-76
2021/12/10 05:03:09;;;;;;;;;;;;;;;;;;5093947;28;19908;-74
2021/12/10 05:05:35;;;;;;;;;;;;;;;;;;5093747;28;20560;-72
2021/12/10 05:08:01;;;;;;;;;;;;;;;;;;5093748;28;19908;-72
2021/12/10 05:10:27;;;;;;;;;;;;;;;;;;5093890;28;20264;-71
2021/12/10 05:12:53;;;;;;;;;;;;;;;;;;5093925;28;20358;-72
2021/12/10 05:15:19;;;;;;;;;;;;;;;;;;5092491;28;19933;-75
2021/12/10 05:17:45;;;;;;;;;;;;;;;;;;5093510;28;19920;-71
2021/12/10 05:20:12;;;;;;;;;;;;;;;;;;5093358;28;19908;-69
2021/12/10 05:22:38;;;;;;;;;;;;;;;;;;5093482;28;19908;-74
2021/12/10 05:25:04;;;;;;;;;;;;;;;;;;5093406;28;20003;-74
2021/12/10 05:27:30;;;;;;;;;;;;;;;;;;5093520;28;19947;-76
2021/12/10 05:29:56;;;;;;;;;;;;;;;;;;5092194;28;19915;-74
2021/12/10 05:32:22;;;;;;;;;;;;;;;;;;5093348;28;19908;-70
2021/12/10 05:34:48;;;;;;;;;;;;;;;;;;5093358;28;19995;-71
2021/12/10 05:37:14;;;;;;;;;;;;;;;;;;5093111;28;19994;-72
2021/12/10 05:39:40;;;;;;;;;;;;;;;;;;5093307;28;19932;-69
2021/12/10 05:42:06;;;;;;;;;;;;;;;;;;5093423;28;19965;-73
2021/12/10 05:44:32;;;;;;;;;;;;;;;;;;5091835;28;19959;-72
2021/12/10 05:46:59;;;;;;;;;;;;;;;;;;5093289;28;19912;-74
2021/12/10 05:49:25;;;;;;;;;;;;;;;;;;5093216;28;19913;-66
2021/12/10 05:51:51;;;;;;;;;;;;;;;;;;5093127;28;20046;-71
2021/12/10 05:54:17;;;;;;;;;;;;;;;;;;5093104;28;19969;-75
2021/12/10 05:56:43;;;;;;;;;;;;;;;;;;5093086;28;20001;-73
2021/12/10 05:59:09;;;;;;;;;;;;;;;;;;5091769;28;19916;-75
2021/12/10 06:01:34;;;;;;;;;;;;;;;;;;5086707;28;20395;-73
2021/12/10 06:04:00;;;;;;;;;;;;;;;;;;5092991;28;19904;-61
2021/12/10 06:06:26;;;;;;;;;;;;;;;;;;5104862;28;19912;-72
2021/12/10 06:08:52;;;;;;;;;;;;;;;;;;5102331;28;19964;-69
2021/12/10 06:11:18;;;;;;;;;;;;;;;;;;5096997;28;20412;-75
2021/12/10 06:13:45;;;;;;;;;;;;;;;;;;5106888;28;20404;-68
2021/12/10 06:16:11;;;;;;;;;;;;;;;;;;5082365;28;19912;-71
2021/12/10 06:18:36;;;;;;;;;;;;;;;;;;5101762;28;19923;-73
2021/12/10 06:21:02;;;;;;;;;;;;;;;;;;5102131;28;19912;-76
2021/12/10 06:23:28;;;;;;;;;;;;;;;;;;5095846;28;19972;-66
2021/12/10 06:25:54;;;;;;;;;;;;;;;;;;5108405;28;21245;-73
2021/12/10 06:28:20;;;;;;;;;;;;;;;;;;5097684;28;19907;-67
2021/12/10 06:30:46;;;;;;;;;;;;;;;;;;5101962;28;20291;-66
2021/12/10 06:33:12;;;;;;;;;;;;;;;;;;5099023;28;20282;-74
2021/12/10 06:35:38;;;;;;;;;;;;;;;;;;5089149;28;19908;-71
2021/12/10 06:38:04;;;;;;;;;;;;;;;;;;5095388;28;19919;-71
2021/12/10 06:40:30;;;;;;;;;;;;;;;;;;5103830;28;20369;-70
2021/12/10 06:42:56;;;;;;;;;;;;;;;;;;5102673;28;19933;-67
2021/12/10 06:45:22;;;;;;;;;;;;;;;;;;5097529;28;19909;-70
2021/12/10 06:47:50;;;;;;;;;;;;;;;;;;5096250;28;19915;-67
2021/12/10 06:50:16;;;;;;;;;;;;;;;;;;5077994;28;20332;-73
2021/12/10 06:52:42;;;;;;;;;;;;;;;;;;5087766;28;19915;-70
2021/12/10 06:55:08;;;;;;;;;;;;;;;;;;5104073;28;19953;-71
2021/12/10 06:57:35;;;;;;;;;;;;;;;;;;5106630;28;19912;-64
2021/12/10 07:00:01;;;;;;;;;;;;;;;;;;5078406;28;19908;-69
2021/12/10 07:02:27;;;;;;;;;;;;;;;;;;5103945;28;19912;-68
2021/12/10 07:04:53;;;;;;;;;;;;;;;;;;5100715;28;20267;-69
2021/12/10 07:07:19;;;;;;;;;;;;;;;;;;5100133;28;19922;-74
2021/12/10 07:09:44;;;;;;;;;;;;;;;;;;5094691;28;19908;-73
2021/12/10 07:12:12;;;;;;;;;;;;;;;;;;5106404;28;19915;-63
2021/12/10 07:14:38;;;;;;;;;;;;;;;;;;5100812;28;19908;-68
2021/12/10 07:17:04;;;;;;;;;;;;;;;;;;5102853;28;19915;-70
2021/12/10 07:19:30;;;;;;;;;;;;;;;;;;5111418;28;20420;-65
2021/12/10 07:21:56;;;;;;;;;;;;;;;;;;5096972;28;19908;-72
2021/12/10 07:24:22;;;;;;;;;;;;;;;;;;5080224;28;20343;-74
2021/12/10 07:26:48;;;;;;;;;;;;;;;;;;5088656;28;19916;-70
2021/12/10 07:29:13;;;;;;;;;;;;;;;;;;5102717;28;20255;-71
2021/12/10 07:31:39;;;;;;;;;;;;;;;;;;5104407;28;19919;-69
2021/12/10 07:34:05;;;;;;;;;;;;;;;;;;5108470;28;19907;-67
2021/12/10 07:36:31;;;;;;;;;;;;;;;;;;5098281;28;19915;-76
2021/12/10 07:38:57;;;;;;;;;;;;;;;;;;5109743;28;19962;-75
2021/12/10 07:41:23;;;;;;;;;;;;;;;;;;5092129;28;19950;-66
2021/12/10 07:43:49;;;;;;;;;;;;;;;;;;5096103;28;19908;-76
2021/12/10 07:46:15;;;;;;;;;;;;;;;;;;5093738;28;20377;-70
2021/12/10 07:48:41;;;;;;;;;;;;;;;;;;5094787;28;19944;-66
2021/12/10 07:51:09;;;;;;;;;;;;;;;;;;5094962;28;19914;-76
2021/12/10 07:53:35;;;;;;;;;;;;;;;;;;5094956;28;19954;-72
2021/12/10 07:56:01;;;;;;;;;;;;;;;;;;5094672;28;20317;-74
2021/12/10 07:58:27;;;;;;;;;;;;;;;;;;5094760;28;20010;-70
2021/12/10 08:00:53;;;;;;;;;;;;;;;;;;5094986;28;20394;-73
2021/12/10 08:03:19;;;;;;;;;;;;;;;;;;5093081;28;20316;-63
2021/12/10 08:05:45;;;;;;;;;;;;;;;;;;5091533;28;19971;-75
2021/12/10 08:08:11;;;;;;;;;;;;;;;;;;5095335;28;19995;-64
2021/12/10 08:10:38;;;;;;;;;;;;;;;;;;5094288;28;19909;-69
2021/12/10 08:13:04;;;;;;;;;;;;;;;;;;5094991;28;19911;-72
2021/12/10 08:15:29;;;;;;;;;;;;;;;;;;5094314;28;20018;-75
2021/12/10 08:17:55;;;;;;;;;;;;;;;;;;5095262;28;19966;-73
2021/12/10 08:20:21;;;;;;;;;;;;;;;;;;5094645;28;19964;-71
2021/12/10 08:22:47;;;;;;;;;;;;;;;;;;5094902;28;19931;-77
2021/12/10 08:25:13;;;;;;;;;;;;;;;;;;5094925;28;20375;-76
2021/12/10 08:27:39;;;;;;;;;;;;;;;;;;5093128;28;20006;-68
2021/12/10 08:30:05;;;;;;;;;;;;;;;;;;5094467;28;19915;-75
2021/12/10 08:32:31;;;;;;;;;;;;;;;;;;5094110;28;19908;-70
2021/12/10 08:34:57;;;;;;;;;;;;;;;;;;5090431;28;20290;-69
2021/12/10 08:37:23;;;;;;;;;;;;;;;;;;5091756;28;19920;-69
2021/12/10 08:39:50;;;;;;;;;;;;;;;;;;5092836;28;19923;-65
2021/12/10 08:42:16;;;;;;;;;;;;;;;;;;5092921;28;19910;-71
2021/12/10 08:44:42;;;;;;;;;;;;;;;;;;5092341;28;19944;-70
2021/12/10 08:47:08;;;;;;;;;;;;;;;;;;5093891;28;20028;-72
2021/12/10 08:49:34;;;;;;;;;;;;;;;;;;5097595;28;19916;-72
2021/12/10 08:52:00;;;;;;;;;;;;;;;;;;5094191;28;20336;-70
2021/12/10 08:54:26;;;;;;;;;;;;;;;;;;5094061;28;20391;-64
2021/12/10 08:56:52;;;;;;;;;;;;;;;;;;5093972;28;20032;-64
2021/12/10 08:59:21;;;;;;;;;;;;;;;;;;5096049;28;19932;-70
2021/12/10 09:01:47;;;;;;;;;;;;;;;;;;5096891;28;19912;-65
2021/12/10 09:04:13;;;;;;;;;;;;;;;;;;5099284;28;19954;-84
2021/12/10 09:06:39;;;;;;;;;;;;;;;;;;5095261;28;19962;-81
2021/12/10 09:09:05;;;;;;;;;;;;;;;;;;5099475;28;20010;-81
2021/12/10 09:11:31;;;;;;;;;;;;;;;;;;5110500;28;20409;-88
2021/12/10 09:13:57;;;;;;;;;;;;;;;;;;5097395;28;20494;-81
2021/12/10 09:16:25;;;;;;;;;;;;;;;;;;5105557;28;19957;-80
2021/12/10 09:18:52;;;;;;;;;;;;;;;;;;5105803;28;19916;-72
2021/12/10 09:21:18;;;;;;;;;;;;;;;;;;5093773;28;19915;-81
2021/12/10 09:23:44;;;;;;;;;;;;;;;;;;5113372;28;19912;-67
2021/12/10 09:26:10;;;;;;;;;;;;;;;;;;5111211;28;20006;-69
2021/12/10 09:28:36;;;;;;;;;;;;;;;;;;5108416;28;19955;-75
2021/12/10 09:31:02;;;;;;;;;;;;;;;;;;5106666;28;19947;-78
2021/12/10 09:33:27;;;;;;;;;;;;;;;;;;5096098;28;19943;-76
2021/12/10 09:35:53;;;;;;;;;;;;;;;;;;5097504;28;19914;-79
2021/12/10 09:38:21;;;;;;;;;;;;;;;;;;5099216;28;20006;-74
2021/12/10 09:40:47;;;;;;;;;;;;;;;;;;5096940;28;19960;-83
2021/12/10 09:43:13;;;;;;;;;;;;;;;;;;5097444;28;19916;-72
2021/12/10 09:45:39;;;;;;;;;;;;;;;;;;5094516;28;20050;-75
2021/12/10 09:48:05;;;;;;;;;;;;;;;;;;5093992;28;20271;-74
2021/12/10 09:50:31;;;;;;;;;;;;;;;;;;5093933;28;20036;-72
2021/12/10 09:52:58;;;;;;;;;;;;;;;;;;5093835;28;19916;-71
2021/12/10 09:55:24;;;;;;;;;;;;;;;;;;5093013;28;19911;-75
2021/12/10 09:57:50;;;;;;;;;;;;;;;;;;5095504;28;19923;-75
2021/12/10 10:00:16;;;;;;;;;;;;;;;;;;5093791;28;19908;-73
2021/12/10 10:02:42;;;;;;;;;;;;;;;;;;5093684;28;19912;-71
2021/12/10 10:05:08;;;;;;;;;;;;;;;;;;5093037;28;20355;-70
2021/12/10 10:07:35;;;;;;;;;;;;;;;;;;5095166;28;19904;-73
2021/12/10 10:10:01;;;;;;;;;;;;;;;;;;5093751;28;19958;-66
2021/12/10 10:12:28;;;;;;;;;;;;;;;;;;5092894;28;19955;-74
2021/12/10 10:14:54;;;;;;;;;;;;;;;;;;5090462;28;19908;-75
2021/12/10 10:17:20;;;;;;;;;;;;;;;;;;5091742;28;20121;-72
2021/12/10 10:19:46;;;;;;;;;;;;;;;;;;5093958;28;20484;-65
2021/12/10 10:22:12;;;;;;;;;;;;;;;;;;5091904;28;19955;-76
2021/12/10 10:24:38;;;;;;;;;;;;;;;;;;5091696;28;19958;-75
2021/12/10 10:27:04;;;;;;;;;;;;;;;;;;5090752;28;20339;-73
2021/12/10 10:29:32;;;;;;;;;;;;;;;;;;5090228;28;20003;-75
2021/12/10 10:31:58;;;;;;;;;;;;;;;;;;5096245;28;19953;-82
2021/12/10 10:34:24;;;;;;;;;;;;;;;;;;5100877;28;19919;-76
2021/12/10 10:36:50;;;;;;;;;;;;;;;;;;5097868;28;19928;-77
2021/12/10 10:39:16;;;;;;;;;;;;;;;;;;5091169;28;19927;-70
2021/12/10 10:41:42;;;;;;;;;;;;;;;;;;5107606;28;19915;-73
2021/12/10 10:44:08;;;;;;;;;;;;;;;;;;5097595;28;20050;-77
2021/12/10 10:46:34;;;;;;;;;;;;;;;;;;5088213;28;20003;-77
2021/12/10 10:49:00;;;;;;;;;;;;;;;;;;5098560;28;20016;-78
2021/12/10 10:51:26;;;;;;;;;;;;;;;;;;5095036;28;19936;-75
2021/12/10 10:53:52;;;;;;;;;;;;;;;;;;5098049;28;20322;-80
2021/12/10 10:56:18;;;;;;;;;;;;;;;;;;5104107;28;19981;-78
2021/12/10 10:58:44;;;;;;;;;;;;;;;;;;5102714;28;19916;-71
2021/12/10 11:01:14;;;;;;;;;;;;;;;;;;5095400;28;19912;-79
2021/12/10 11:03:42;;;;;;;;;;;;;;;;;;5101614;28;19905;-78
2021/12/10 11:06:08;;;;;;;;;;;;;;;;;;5105372;28;20371;-79
2021/12/10 11:08:34;;;;;;;;;;;;;;;;;;5101430;28;19915;-79
2021/12/10 11:11:00;;;;;;;;;;;;;;;;;;5097032;28;20496;-78
2021/12/10 11:13:27;;;;;;;;;;;;;;;;;;5107970;28;19919;-63
2021/12/10 11:15:53;;;;;;;;;;;;;;;;;;5095499;28;19949;-73
2021/12/10 11:18:19;;;;;;;;;;;;;;;;;;5103643;28;19928;-79
2021/12/10 11:20:45;;;;;;;;;;;;;;;;;;5086287;28;19961;-78
2021/12/10 11:23:12;;;;;;;;;;;;;;;;;;5085843;28;19908;-76
2021/12/10 11:25:38;;;;;;;;;;;;;;;;;;5083103;28;19916;-79
2021/12/10 11:28:03;;;;;;;;;;;;;;;;;;5092501;28;20041;-74
2021/12/10 11:30:29;;;;;;;;;;;;;;;;;;5091578;28;20255;-72
2021/12/10 11:32:55;;;;;;;;;;;;;;;;;;5091483;28;19923;-72
2021/12/10 11:35:21;;;;;;;;;;;;;;;;;;5098782;28;19927;-67
2021/12/10 11:37:47;;;;;;;;;;;;;;;;;;5092625;28;19928;-65
2021/12/10 11:40:13;;;;;;;;;;;;;;;;;;5096285;28;19919;-73
2021/12/10 11:42:43;;;;;;;;;;;;;;;;;;5098075;28;19923;-68
2021/12/10 11:45:28;;;;;;;;;;;;;;;;;;5099377;28;20370;-72
2021/12/10 11:48:04;;;;;;;;;;;;;;;;;;5089385;28;20476;-67
2021/12/10 11:50:30;;;;;;;;;;;;;;;;;;5092903;28;19915;-63
2021/12/10 11:52:55;;;;;;;;;;;;;;;;;;5093776;28;19912;-72
2021/12/10 11:55:21;;;;;;;;;;;;;;;;;;5081279;28;19916;-69
2021/12/10 11:57:50;;;;;;;;;;;;;;;;;;5094176;28;19931;-70
2021/12/10 12:00:16;;;;;;;;;;;;;;;;;;5094917;28;20003;-69
2021/12/10 12:02:42;;;;;;;;;;;;;;;;;;5105896;28;19956;-67
2021/12/10 12:05:07;;;;;;;;;;;;;;;;;;5105287;28;19908;-72
2021/12/10 12:07:35;;;;;;;;;;;;;;;;;;5108275;28;19915;-71
2021/12/10 12:10:02;;;;;;;;;;;;;;;;;;5097884;28;19947;-71
2021/12/10 12:12:28;;;;;;;;;;;;;;;;;;5098328;28;19915;-72
2021/12/10 12:15:03;;;;;;;;;;;;;;;;;;5105293;28;19908;-72
2021/12/10 12:17:29;;;;;;;;;;;;;;;;;;5108431;28;19908;-72
2021/12/10 12:19:54;;;;;;;;;;;;;;;;;;5097071;28;19968;-70
2021/12/10 12:25:09;;;;;;;;;;;;;;;;;;5105063;28;19953;-71
2021/12/10 12:27:35;;;;;;;;;;;;;;;;;;5098013;28;19908;-72
2021/12/10 12:30:06;;;;;;;;;;;;;;;;;;5080052;28;19912;-71
2021/12/10 12:32:32;;;;;;;;;;;;;;;;;;5108230;28;19908;-71
2021/12/10 12:34:58;;;;;;;;;;;;;;;;;;5103703;28;20006;-64
2021/12/10 12:37:24;;;;;;;;;;;;;;;;;;5100603;28;20002;-72
2021/12/10 12:39:50;;;;;;;;;;;;;;;;;;5109123;28;20014;-71
2021/12/10 12:42:16;;;;;;;;;;;;;;;;;;5095925;28;20247;-70
2021/12/10 12:44:42;;;;;;;;;;;;;;;;;;5105098;28;19918;-68
2021/12/10 12:47:08;;;;;;;;;;;;;;;;;;5096496;28;19952;-74
2021/12/10 12:49:34;;;;;;;;;;;;;;;;;;5098043;28;20399;-73
2021/12/10 12:52:00;;;;;;;;;;;;;;;;;;5108979;28;19908;-72
2021/12/10 12:54:26;;;;;;;;;;;;;;;;;;5097345;28;19907;-73
2021/12/10 12:56:52;;;;;;;;;;;;;;;;;;5104476;28;19915;-73
2021/12/10 12:59:18;;;;;;;;;;;;;;;;;;5104050;28;19961;-71
2021/12/10 13:01:43;;;;;;;;;;;;;;;;;;5101748;28;19916;-62
2021/12/10 13:04:10;;;;;;;;;;;;;;;;;;5080125;28;20010;-69
2021/12/10 13:06:36;;;;;;;;;;;;;;;;;;5106941;28;20375;-72
2021/12/10 13:09:02;;;;;;;;;;;;;;;;;;5099771;28;19934;-71
2021/12/10 13:11:30;;;;;;;;;;;;;;;;;;5104393;28;19946;-72
2021/12/10 13:14:00;;;;;;;;;;;;;;;;;;5098124;27;19908;-72
2021/12/10 13:16:26;;;;;;;;;;;;;;;;;;5107689;28;19908;-69
2021/12/10 13:18:51;;;;;;;;;;;;;;;;;;5100717;28;19916;-72
2021/12/10 13:21:17;;;;;;;;;;;;;;;;;;5089547;28;19908;-66
2021/12/10 13:23:43;;;;;;;;;;;;;;;;;;5109279;28;19995;-72
2021/12/10 13:26:11;;;;;;;;;;;;;;;;;;5094503;28;20487;-69
2021/12/10 13:28:37;;;;;;;;;;;;;;;;;;5100430;28;20367;-69
2021/12/10 13:31:03;;;;;;;;;;;;;;;;;;5100516;28;19923;-68
2021/12/10 13:33:29;;;;;;;;;;;;;;;;;;5100101;28;19912;-64
2021/12/10 13:35:55;;;;;;;;;;;;;;;;;;5092774;28;19916;-72
2021/12/10 13:38:21;;;;;;;;;;;;;;;;;;5083727;28;19985;-70
2021/12/10 13:40:47;;;;;;;;;;;;;;;;;;5100753;28;19947;-73
2021/12/10 13:43:14;;;;;;;;;;;;;;;;;;5094104;28;20362;-67
2021/12/10 13:45:42;;;;;;;;;;;;;;;;;;5097271;28;20527;-65
2021/12/10 13:48:13;;;;;;;;;;;;;;;;;;5095695;28;20033;-70
2021/12/10 13:50:39;;;;;;;;;;;;;;;;;;5094971;28;20432;-62
2021/12/10 13:53:05;;;;;;;;;;;;;;;;;;5095938;28;19924;-63
2021/12/10 13:55:31;;;;;;;;;;;;;;;;;;5098036;28;19942;-67
2021/12/10 13:57:57;;;;;;;;;;;;;;;;;;5099621;28;20484;-67
2021/12/10 14:00:23;;;;;;;;;;;;;;;;;;5103846;28;19924;-72
2021/12/10 14:02:49;;;;;;;;;;;;;;;;;;5101152;28;19908;-73
2021/12/10 14:05:15;;;;;;;;;;;;;;;;;;5094622;28;20447;-73
2021/12/10 14:07:41;;;;;;;;;;;;;;;;;;5077485;28;19912;-73
2021/12/10 14:10:07;;;;;;;;;;;;;;;;;;5122302;27;19919;-74
2021/12/10 14:12:35;;;;;;;;;;;;;;;;;;5084590;28;19908;-73
2021/12/10 14:15:01;;;;;;;;;;;;;;;;;;5101801;28;19937;-70
2021/12/10 14:17:27;;;;;;;;;;;;;;;;;;5106070;28;20038;-65
2021/12/10 14:19:53;;;;;;;;;;;;;;;;;;5095131;28;20280;-72
2021/12/10 14:22:19;;;;;;;;;;;;;;;;;;5103304;28;20279;-62
2021/12/10 14:24:46;;;;;;;;;;;;;;;;;;5112085;28;19908;-65
2021/12/10 14:27:12;;;;;;;;;;;;;;;;;;5112646;28;19907;-62
2021/12/10 14:29:38;;;;;;;;;;;;;;;;;;5112523;28;19977;-62
2021/12/10 14:32:03;;;;;;;;;;;;;;;;;;5112460;28;19914;-62
2021/12/10 14:34:29;;;;;;;;;;;;;;;;;;5112555;28;19914;-62
2021/12/10 14:36:55;;;;;;;;;;;;;;;;;;5110907;28;20002;-62
2021/12/10 14:39:21;;;;;;;;;;;;;;;;;;5110977;28;19920;-72
2021/12/10 14:41:47;;;;;;;;;;;;;;;;;;5112391;28;19908;-72
2021/12/10 14:44:13;;;;;;;;;;;;;;;;;;5113568;28;19957;-72
2021/12/10 14:46:39;;;;;;;;;;;;;;;;;;5112726;28;19951;-69
2021/12/10 14:49:05;;;;;;;;;;;;;;;;;;5112691;28;19976;-68
2021/12/10 14:51:31;;;;;;;;;;;;;;;;;;5112257;28;19912;-71
2021/12/10 14:53:57;;;;;;;;;;;;;;;;;;5112270;28;19994;-65
2021/12/10 14:56:23;;;;;;;;;;;;;;;;;;5111214;28;20000;-62
2021/12/10 14:58:49;;;;;;;;;;;;;;;;;;5110241;28;19916;-62
2021/12/10 15:01:14;;;;;;;;;;;;;;;;;;5071831;28;20412;-63
2021/12/10 15:03:40;;;;;;;;;;;;;;;;;;5071617;28;19987;-68
2021/12/10 15:06:06;;;;;;;;;;;;;;;;;;5104207;28;20036;-67
2021/12/10 15:08:34;;;;;;;;;;;;;;;;;;5090526;28;20011;-63
2021/12/10 15:11:00;;;;;;;;;;;;;;;;;;5106914;28;20018;-73
2021/12/10 15:13:25;;;;;;;;;;;;;;;;;;5093897;28;19951;-66
2021/12/10 15:15:51;;;;;;;;;;;;;;;;;;5095145;28;20383;-67
2021/12/10 15:18:17;;;;;;;;;;;;;;;;;;5102205;28;20277;-70
2021/12/10 15:20:43;;;;;;;;;;;;;;;;;;5097498;28;19912;-63
2021/12/10 15:23:10;;;;;;;;;;;;;;;;;;5106746;28;19908;-66
2021/12/10 15:25:36;;;;;;;;;;;;;;;;;;5093762;28;19963;-62
2021/12/10 15:28:04;;;;;;;;;;;;;;;;;;5095267;28;19966;-68
2021/12/10 15:30:30;;;;;;;;;;;;;;;;;;5091900;28;20313;-62
2021/12/10 15:32:56;;;;;;;;;;;;;;;;;;5101425;28;19912;-66
2021/12/10 15:35:22;;;;;;;;;;;;;;;;;;5099053;28;19915;-67
2021/12/10 15:37:48;;;;;;;;;;;;;;;;;;5105982;28;20121;-68
2021/12/10 15:40:14;;;;;;;;;;;;;;;;;;5096320;28;19981;-63
2021/12/10 15:42:40;;;;;;;;;;;;;;;;;;5097222;28;20359;-75
2021/12/10 15:45:06;;;;;;;;;;;;;;;;;;5105610;28;19965;-65
2021/12/10 15:47:34;;;;;;;;;;;;;;;;;;5102791;28;19907;-76
2021/12/10 15:50:00;;;;;;;;;;;;;;;;;;5102414;28;19912;-76
2021/12/10 15:52:26;;;;;;;;;;;;;;;;;;5095986;28;19920;-65
2021/12/10 15:54:51;;;;;;;;;;;;;;;;;;5100394;28;19931;-73
2021/12/10 15:57:17;;;;;;;;;;;;;;;;;;5096204;28;19911;-70
2021/12/10 15:59:45;;;;;;;;;;;;;;;;;;5099071;28;20375;-69
2021/12/10 16:02:11;;;;;;;;;;;;;;;;;;5095849;28;19912;-74
2021/12/10 16:04:37;;;;;;;;;;;;;;;;;;5094361;28;20085;-74
2021/12/10 16:07:03;;;;;;;;;;;;;;;;;;5094541;28;20515;-82
2021/12/10 16:09:30;;;;;;;;;;;;;;;;;;5093587;28;19915;-83
2021/12/10 16:11:56;;;;;;;;;;;;;;;;;;5094623;28;20347;-73
2021/12/10 16:14:21;;;;;;;;;;;;;;;;;;5107465;28;19964;-72
2021/12/10 16:16:49;;;;;;;;;;;;;;;;;;5098530;28;19919;-75
2021/12/10 16:19:15;;;;;;;;;;;;;;;;;;5096118;28;19963;-71
2021/12/10 16:21:41;;;;;;;;;;;;;;;;;;5094388;28;19958;-77
2021/12/10 16:24:07;;;;;;;;;;;;;;;;;;5095790;28;20438;-67
2021/12/10 16:26:33;;;;;;;;;;;;;;;;;;5093900;28;19915;-75
2021/12/10 16:29:01;;;;;;;;;;;;;;;;;;5093718;28;19915;-66
2021/12/10 16:31:27;;;;;;;;;;;;;;;;;;5093234;28;19916;-75
2021/12/10 16:33:55;;;;;;;;;;;;;;;;;;5094049;28;19908;-84
2021/12/10 16:36:20;;;;;;;;;;;;;;;;;;5093909;28;19908;-82
2021/12/10 16:38:46;;;;;;;;;;;;;;;;;;5094464;28;19916;-82
2021/12/10 16:41:14;;;;;;;;;;;;;;;;;;5094946;28;20275;-82
2021/12/10 16:43:40;;;;;;;;;;;;;;;;;;5093173;28;19961;-78
2021/12/10 16:46:06;;;;;;;;;;;;;;;;;;5094679;28;19995;-74
2021/12/10 16:48:32;;;;;;;;;;;;;;;;;;5094129;28;20010;-75
2021/12/10 16:50:58;;;;;;;;;;;;;;;;;;5094755;28;19995;-74
2021/12/10 16:53:24;;;;;;;;;;;;;;;;;;5093920;28;20466;-74
2021/12/10 16:55:54;;;;;;;;;;;;;;;;;;5092527;28;20305;-75
2021/12/10 16:58:20;;;;;;;;;;;;;;;;;;5093734;28;19977;-74